KMUO/MUO METAR and TAF weather

Enter ICAO airport designator
Station Type Date Time Source
KMUO METAR 2019/02/20 22:58 UTC NOAA

KMUO 202258Z AUTO 34006KT 10SM FEW015 FEW075 BKN090 01/01 A2965 RMK AO2 SLP061 T00050005 $


Station Type Date Time Source
KMUO Decoded METAR 2019/02/20 22:58 UTC NOAA

Mountain Home Air Force Base, ID, United States (KMUO) 43-03N 115-52W
Feb 20, 2019 - 05:58 PM EST / 2019.02.20 2258 UTC
Wind: from the NNW (340 degrees) at 7 MPH (6 KT):0
Visibility: 10 mile(s):0
Sky conditions: mostly cloudy
Temperature: 32.9 F (0.5 C)
Windchill: 26 F (-3 C):1
Dew Point: 32.9 F (0.5 C)
Relative Humidity: 100%
Pressure (altimeter): 29.65 in. Hg (1004 hPa)
ob: KMUO 202258Z AUTO 34006KT 10SM FEW015 FEW075 BKN090 01/01 A2965 RMK AO2 SLP061 T00050005
cycle: 23

Station Type Date Time Source
KMUO TAF 2019/02/20 21:57 UTC NOAA

TAF TAF
AMD KMUO 202152Z 2021/2124 31009KT 9999 SCT015 OVC040 620406 QNH2960INS
BECMG 2108/2109 VRB06KT 4800 -SN BKN010 OVC020 620209 QNH2966INS
TEMPO 2111/2114 2400 -SN BKN005 620109
BECMG 2114/2115 31009KT 9999 NSW SCT010 BKN020 620203 QNH2975INS
BECMG 2120/2121 31010G15KT 9999 SCT020 QNH2979INS TX01/2023Z TNM06/2113Z


Example: see airport list